createdAt,value
2023-11-15T00:00:31.223Z,56.49
2023-11-15T00:02:58.676Z,57.18
2023-11-15T00:05:26.198Z,56.80
2023-11-15T00:07:56.801Z,56.03
2023-11-15T00:10:24.304Z,56.56
2023-11-15T00:12:52.054Z,56.41
2023-11-15T00:15:19.542Z,56.06
2023-11-15T00:17:47.288Z,56.25
2023-11-15T00:20:14.986Z,56.44
2023-11-15T00:22:42.651Z,57.08
2023-11-15T00:25:10.115Z,57.54
2023-11-15T00:27:37.507Z,57.32
2023-11-15T00:30:06.487Z,57.30
2023-11-15T00:32:33.996Z,57.08
2023-11-15T00:35:01.438Z,57.05
2023-11-15T00:37:28.864Z,56.77
2023-11-15T00:39:56.270Z,56.74
2023-11-15T00:42:23.736Z,56.96
2023-11-15T00:44:51.178Z,56.78
2023-11-15T00:47:20.038Z,56.57
2023-11-15T00:49:47.529Z,56.86
2023-11-15T00:52:15.293Z,57.02
2023-11-15T00:54:42.852Z,57.14
2023-11-15T00:57:10.269Z,56.03
2023-11-15T00:59:39.315Z,55.95
2023-11-15T01:02:07.212Z,56.19
2023-11-15T01:04:34.627Z,56.02
2023-11-15T01:07:02.820Z,56.44
2023-11-15T01:09:30.439Z,56.51
2023-11-15T01:11:57.822Z,56.18
2023-11-15T01:14:25.301Z,56.53
2023-11-15T01:16:53.313Z,55.91
2023-11-15T01:19:20.791Z,55.84
2023-11-15T01:21:48.228Z,55.65
2023-11-15T01:24:17.846Z,55.48
2023-11-15T01:26:45.477Z,55.58
2023-11-15T01:29:13.264Z,55.52
2023-11-15T01:31:40.671Z,55.64
2023-11-15T01:34:08.708Z,55.67
2023-11-15T01:36:36.865Z,55.71
2023-11-15T01:39:05.630Z,55.68
2023-11-15T01:41:33.065Z,55.99
2023-11-15T01:44:00.523Z,55.76
2023-11-15T01:46:28.113Z,55.49
2023-11-15T01:48:55.555Z,55.12
2023-11-15T01:51:22.943Z,55.30
2023-11-15T01:53:50.446Z,55.18
2023-11-15T01:56:18.054Z,54.85
2023-11-15T01:58:45.666Z,54.86
2023-11-15T02:01:13.325Z,55.07
2023-11-15T02:03:41.008Z,55.95
2023-11-15T02:06:08.663Z,55.74
2023-11-15T02:08:36.224Z,55.53
2023-11-15T02:11:04.561Z,55.58
2023-11-15T02:13:32.397Z,55.96
2023-11-15T02:16:00.006Z,55.62
2023-11-15T02:18:27.568Z,55.54
2023-11-15T02:20:55.220Z,55.32
2023-11-15T02:23:22.759Z,55.33
2023-11-15T02:25:53.620Z,55.42
2023-11-15T02:28:21.202Z,56.19
2023-11-15T02:30:48.724Z,56.98
2023-11-15T02:33:16.418Z,57.07
2023-11-15T02:35:43.973Z,57.10
2023-11-15T02:38:11.420Z,57.18
2023-11-15T02:40:39.873Z,57.13
2023-11-15T02:43:15.389Z,57.09
2023-11-15T02:45:43.450Z,56.65
2023-11-15T02:48:11.108Z,56.48
2023-11-15T02:50:38.930Z,56.59
2023-11-15T02:53:06.671Z,56.80
2023-11-15T02:55:34.324Z,56.86
2023-11-15T02:58:05.851Z,56.93
2023-11-15T03:00:33.379Z,56.64
2023-11-15T03:03:00.930Z,56.75
2023-11-15T03:05:28.987Z,56.20
2023-11-15T03:07:56.584Z,56.09
2023-11-15T03:10:24.838Z,55.88
2023-11-15T03:12:53.217Z,56.00
2023-11-15T03:15:20.723Z,56.04
2023-11-15T03:17:48.263Z,56.86
2023-11-15T03:20:15.884Z,56.58
2023-11-15T03:22:43.291Z,56.95
2023-11-15T03:25:10.742Z,57.04
2023-11-15T03:27:38.550Z,56.90
2023-11-15T03:30:06.970Z,56.91
2023-11-15T03:32:35.094Z,56.35
2023-11-15T03:35:02.733Z,56.03
2023-11-15T03:37:30.175Z,55.95
2023-11-15T03:39:58.051Z,55.75
2023-11-15T03:42:25.474Z,55.47
2023-11-15T03:44:53.089Z,55.46
2023-11-15T03:47:20.664Z,55.42
2023-11-15T03:49:48.141Z,55.17
2023-11-15T03:52:15.774Z,55.15
2023-11-15T03:54:43.167Z,54.97
2023-11-15T03:57:12.940Z,55.13
2023-11-15T03:59:40.449Z,55.37
2023-11-15T04:03:25.280Z,64.24
2023-11-15T04:05:52.575Z,61.72
2023-11-15T04:08:19.183Z,61.56
2023-11-15T04:10:45.820Z,61.30
2023-11-15T04:13:12.727Z,61.32
2023-11-15T04:15:39.434Z,61.15
2023-11-15T04:18:06.248Z,61.28
2023-11-15T04:20:32.992Z,61.13
2023-11-15T04:22:59.913Z,61.35
2023-11-15T04:25:26.589Z,61.98
2023-11-15T04:27:53.165Z,62.37
2023-11-15T04:30:19.857Z,62.40
2023-11-15T04:32:46.956Z,62.31
2023-11-15T04:35:13.711Z,62.39
2023-11-15T04:37:40.357Z,62.66
2023-11-15T04:40:07.949Z,62.39
2023-11-15T04:42:34.587Z,62.38
2023-11-15T04:45:01.784Z,62.15
2023-11-15T04:47:29.301Z,61.77
2023-11-15T04:49:55.970Z,61.32
2023-11-15T04:52:22.899Z,61.42
2023-11-15T04:54:49.395Z,62.08
2023-11-15T04:57:20.481Z,62.19
2023-11-15T04:59:47.215Z,61.86
2023-11-15T05:02:14.632Z,61.87
2023-11-15T05:04:41.238Z,61.86
2023-11-15T05:07:07.981Z,61.99
2023-11-15T05:09:34.593Z,62.44
2023-11-15T05:12:02.460Z,62.23
2023-11-15T05:14:29.634Z,61.94
2023-11-15T05:16:56.125Z,61.74
2023-11-15T05:19:22.603Z,61.95
2023-11-15T05:21:49.086Z,62.67
2023-11-15T05:24:15.794Z,62.28
2023-11-15T05:26:42.656Z,61.83
2023-11-15T05:29:09.609Z,61.16
2023-11-15T05:31:36.254Z,61.02
2023-11-15T05:34:03.036Z,60.83
2023-11-15T05:36:29.877Z,60.54
2023-11-15T05:38:56.401Z,60.50
2023-11-15T05:41:26.652Z,60.03
2023-11-15T05:43:54.905Z,59.41
2023-11-15T05:46:21.413Z,59.14
2023-11-15T05:48:48.157Z,58.84
2023-11-15T05:51:14.893Z,58.80
2023-11-15T05:53:42.443Z,58.85
2023-11-15T05:56:09.210Z,58.25
2023-11-15T05:58:36.049Z,58.05
2023-11-15T06:01:03.788Z,58.07
2023-11-15T06:03:30.644Z,57.92
2023-11-15T06:05:57.428Z,57.78
2023-11-15T06:08:24.747Z,57.68
2023-11-15T06:10:51.347Z,57.30
2023-11-15T06:13:17.967Z,56.92
2023-11-15T06:15:44.486Z,56.52
2023-11-15T06:18:14.236Z,56.55
2023-11-15T06:20:41.047Z,56.02
2023-11-15T06:23:08.012Z,55.84
2023-11-15T06:25:35.089Z,55.69
2023-11-15T06:28:03.948Z,55.66
2023-11-15T06:30:30.674Z,55.50
2023-11-15T06:32:57.434Z,55.42
2023-11-15T06:35:24.051Z,55.46
2023-11-15T06:37:50.721Z,55.92
2023-11-15T06:40:17.778Z,56.03
2023-11-15T06:42:44.537Z,55.80
2023-11-15T06:45:13.026Z,55.89
2023-11-15T06:47:41.853Z,55.70
2023-11-15T06:50:08.839Z,55.76
2023-11-15T06:52:38.636Z,55.56
2023-11-15T06:55:12.803Z,55.30
2023-11-15T06:57:41.421Z,55.54
2023-11-15T07:00:14.703Z,55.22
2023-11-15T07:02:44.322Z,55.28
2023-11-15T07:05:11.308Z,55.30
2023-11-15T07:07:38.012Z,55.11
2023-11-15T07:10:06.168Z,55.45
2023-11-15T07:12:36.600Z,55.13
2023-11-15T07:15:13.712Z,55.06
2023-11-15T07:17:41.215Z,54.76
2023-11-15T07:20:10.472Z,54.16
2023-11-15T07:22:37.537Z,54.10
2023-11-15T07:25:07.529Z,54.12
2023-11-15T07:27:35.095Z,53.67
2023-11-15T07:30:01.837Z,53.82
2023-11-15T07:32:29.524Z,53.64
2023-11-15T07:34:56.335Z,53.63
2023-11-15T07:37:23.446Z,53.65
2023-11-15T07:39:50.871Z,53.29
2023-11-15T07:42:17.698Z,53.26
2023-11-15T07:44:44.425Z,53.21
2023-11-15T07:47:14.450Z,52.88
2023-11-15T07:49:41.140Z,53.33
2023-11-15T07:52:07.801Z,52.97
2023-11-15T07:54:34.607Z,52.50
2023-11-15T07:57:01.200Z,52.24
2023-11-15T07:59:27.802Z,51.62
2023-11-15T08:01:54.363Z,51.74
2023-11-15T08:04:21.970Z,51.53
2023-11-15T08:06:49.696Z,50.99
2023-11-15T08:09:26.284Z,51.05
2023-11-15T08:11:55.300Z,50.33
2023-11-15T08:14:22.467Z,49.94
2023-11-15T08:16:52.762Z,49.61
2023-11-15T08:19:19.582Z,49.41
2023-11-15T08:21:47.761Z,49.33
2023-11-15T08:24:21.400Z,48.64
2023-11-15T08:26:51.649Z,48.10
2023-11-15T08:29:18.596Z,47.22
2023-11-15T08:31:45.183Z,46.76
2023-11-15T08:34:12.244Z,46.44
2023-11-15T08:36:38.933Z,46.38
2023-11-15T08:39:13.253Z,46.37
2023-11-15T08:41:43.884Z,46.30
2023-11-15T08:44:10.716Z,45.99
2023-11-15T08:46:43.662Z,45.84
2023-11-15T08:49:13.341Z,44.59
2023-11-15T08:51:41.413Z,43.82
2023-11-15T08:54:08.106Z,43.25
2023-11-15T08:56:36.050Z,42.42
2023-11-15T08:59:04.198Z,41.31
2023-11-15T09:01:31.257Z,39.61
2023-11-15T09:03:58.029Z,39.22
2023-11-15T09:06:25.141Z,38.56
2023-11-15T09:08:51.961Z,36.78
2023-11-15T09:11:18.631Z,36.11
2023-11-15T09:13:47.609Z,34.37
2023-11-15T09:16:14.452Z,33.00
2023-11-15T09:18:44.595Z,32.24
2023-11-15T09:21:12.694Z,32.23
2023-11-15T09:23:41.845Z,31.02
2023-11-15T09:26:15.784Z,30.26
2023-11-15T09:28:43.012Z,30.30
2023-11-15T09:31:09.752Z,30.88
2023-11-15T09:33:36.599Z,30.34
2023-11-15T09:36:07.008Z,30.25
2023-11-15T09:38:34.128Z,30.44
2023-11-15T09:41:01.843Z,29.66
2023-11-15T09:43:28.903Z,28.24
2023-11-15T09:45:59.142Z,28.03
2023-11-15T09:48:26.951Z,27.59
2023-11-15T09:50:54.193Z,27.19
2023-11-15T09:53:21.495Z,27.15
2023-11-15T09:55:50.125Z,27.42
2023-11-15T09:58:17.822Z,27.01
2023-11-15T10:00:47.267Z,26.54
2023-11-15T10:03:19.788Z,25.93
2023-11-15T10:05:58.218Z,25.97
2023-11-15T10:08:25.885Z,26.02
2023-11-15T10:11:09.625Z,26.54
2023-11-15T10:13:39.991Z,27.99
2023-11-15T10:16:30.827Z,28.71
2023-11-15T10:19:00.852Z,30.16
2023-11-15T10:21:29.360Z,32.20
2023-11-15T10:24:16.407Z,33.50
2023-11-15T10:26:44.221Z,34.73
2023-11-15T10:29:13.147Z,35.18
2023-11-15T10:31:53.493Z,35.63
2023-11-15T10:34:33.943Z,36.25
2023-11-15T10:37:07.934Z,36.82
2023-11-15T10:39:41.123Z,36.65
2023-11-15T10:42:09.631Z,36.95
2023-11-15T10:44:36.930Z,37.33
2023-11-15T10:47:03.665Z,37.57
2023-11-15T10:49:31.358Z,37.96
2023-11-15T10:51:58.057Z,38.65
2023-11-15T10:54:24.784Z,39.49
2023-11-15T10:56:51.608Z,40.18
2023-11-15T10:59:19.525Z,40.84
2023-11-15T11:01:46.444Z,41.16
2023-11-15T11:04:13.476Z,41.37
2023-11-15T11:06:40.218Z,41.92
2023-11-15T11:09:42.493Z,42.62
2023-11-15T11:12:13.513Z,43.28
2023-11-15T11:14:40.810Z,43.42
2023-11-15T11:17:33.327Z,43.51
2023-11-15T11:20:04.783Z,43.78
2023-11-15T11:22:33.372Z,44.19
2023-11-15T11:25:07.531Z,44.35
2023-11-15T11:27:37.058Z,44.83
2023-11-15T11:30:16.001Z,46.61
2023-11-15T11:32:45.525Z,47.16
2023-11-15T11:35:21.152Z,47.00
2023-11-15T11:37:50.693Z,47.58
2023-11-15T11:40:18.558Z,47.94
2023-11-15T11:42:45.713Z,48.01
2023-11-15T11:45:13.276Z,48.08
2023-11-15T11:47:47.112Z,48.52
2023-11-15T11:50:33.665Z,49.53
2023-11-15T11:53:00.357Z,49.50
2023-11-15T11:55:26.929Z,49.88
2023-11-15T11:57:53.528Z,51.04
2023-11-15T12:00:22.597Z,50.83
2023-11-15T12:03:00.663Z,51.45
2023-11-15T12:05:32.430Z,51.90
2023-11-15T12:08:00.387Z,51.92
2023-11-15T12:10:27.166Z,52.35
2023-11-15T12:13:00.101Z,52.81
2023-11-15T12:15:27.737Z,52.73
2023-11-15T12:17:55.603Z,53.03
2023-11-15T12:20:36.625Z,53.23
2023-11-15T12:23:08.588Z,53.52
2023-11-15T12:25:52.726Z,52.86
2023-11-15T12:28:26.045Z,52.67
2023-11-15T12:30:54.324Z,52.69
2023-11-15T12:33:21.267Z,52.75
2023-11-15T12:35:48.301Z,52.76
2023-11-15T12:38:15.009Z,52.81
2023-11-15T12:40:42.668Z,53.36
2023-11-15T12:43:23.109Z,54.13
2023-11-15T12:45:51.461Z,53.45
2023-11-15T12:48:18.408Z,53.38
2023-11-15T12:50:48.547Z,53.98
2023-11-15T12:53:17.908Z,54.06
2023-11-15T12:55:50.078Z,53.96
2023-11-15T12:58:20.803Z,53.45
2023-11-15T13:01:04.855Z,53.52
2023-11-15T13:03:34.325Z,53.53
2023-11-15T13:06:16.583Z,54.12
2023-11-15T13:08:43.993Z,53.95
2023-11-15T13:11:14.852Z,54.02
2023-11-15T13:13:46.877Z,53.57
2023-11-15T13:16:13.944Z,53.62
2023-11-15T13:18:41.761Z,53.70
2023-11-15T13:21:08.892Z,53.90
2023-11-15T13:23:36.618Z,54.42
2023-11-15T13:26:04.801Z,54.36
2023-11-15T13:28:35.052Z,54.36
2023-11-15T13:31:03.684Z,54.43
2023-11-15T13:33:30.770Z,54.13
2023-11-15T13:35:57.961Z,54.01
2023-11-15T13:38:26.572Z,54.00
2023-11-15T13:40:53.368Z,53.55
2023-11-15T13:43:22.841Z,53.52
2023-11-15T13:45:49.670Z,53.57
2023-11-15T13:48:18.402Z,53.59
2023-11-15T13:50:45.581Z,53.59
2023-11-15T13:53:14.054Z,53.08
2023-11-15T13:55:40.725Z,52.89
2023-11-15T13:58:07.416Z,52.56
2023-11-15T14:00:34.256Z,52.43
2023-11-15T14:03:06.810Z,52.71
2023-11-15T14:05:34.405Z,52.47
2023-11-15T14:08:01.187Z,52.28
2023-11-15T14:10:30.202Z,52.23
2023-11-15T14:13:03.544Z,52.21
2023-11-15T14:15:30.585Z,52.07
2023-11-15T14:17:57.389Z,52.27
2023-11-15T14:20:25.192Z,52.14
2023-11-15T14:22:52.303Z,52.26
2023-11-15T14:25:21.869Z,52.20
2023-11-15T14:27:54.225Z,52.30
2023-11-15T14:30:24.096Z,52.80
2023-11-15T14:32:51.064Z,52.79
2023-11-15T14:35:18.447Z,53.89
2023-11-15T14:37:49.896Z,53.77
2023-11-15T14:40:21.703Z,53.73
2023-11-15T14:42:52.455Z,53.66
2023-11-15T14:45:19.813Z,53.94
2023-11-15T14:47:46.757Z,54.31
2023-11-15T14:50:19.034Z,54.61
2023-11-15T14:52:53.662Z,54.73
2023-11-15T14:55:27.248Z,54.74
2023-11-15T14:57:54.062Z,55.06
2023-11-15T15:00:21.171Z,54.83
2023-11-15T15:02:50.862Z,54.93
2023-11-15T15:05:18.672Z,55.08
2023-11-15T15:07:45.298Z,55.44
2023-11-15T15:10:12.630Z,56.16
2023-11-15T15:12:39.993Z,55.81
2023-11-15T15:15:12.656Z,55.98
2023-11-15T15:17:40.183Z,56.49
2023-11-15T15:20:10.834Z,56.18
2023-11-15T15:22:40.716Z,56.24
2023-11-15T15:25:12.444Z,56.57
2023-11-15T15:27:39.518Z,56.27
2023-11-15T15:30:13.817Z,55.87
2023-11-15T15:32:41.361Z,55.03
2023-11-15T15:35:08.541Z,55.31
2023-11-15T15:37:35.542Z,55.81
2023-11-15T15:40:04.184Z,55.76
2023-11-15T15:42:31.182Z,56.17
2023-11-15T15:44:59.689Z,56.34
2023-11-15T15:47:26.484Z,56.36
2023-11-15T15:49:56.454Z,56.28
2023-11-15T15:52:23.781Z,56.58
2023-11-15T15:54:50.560Z,56.68
2023-11-15T15:57:17.395Z,56.26
2023-11-15T15:59:45.312Z,56.17
2023-11-15T16:02:12.185Z,56.37
2023-11-15T16:04:41.733Z,55.97
2023-11-15T16:07:09.942Z,56.02
2023-11-15T16:09:41.905Z,56.26
2023-11-15T16:12:08.724Z,55.83
2023-11-15T16:14:35.457Z,55.90
2023-11-15T16:19:57.313Z,60.75
2023-11-15T16:22:26.500Z,59.48
2023-11-15T16:24:56.917Z,59.94
2023-11-15T16:27:28.243Z,59.87
2023-11-15T16:29:59.742Z,60.23
2023-11-15T16:32:29.171Z,60.27
2023-11-15T16:34:57.502Z,60.12
2023-11-15T16:37:26.162Z,60.44
2023-11-15T16:39:53.938Z,60.51
2023-11-15T16:42:21.903Z,60.65
2023-11-15T16:44:49.633Z,60.40
2023-11-15T16:47:17.227Z,60.31
2023-11-15T16:49:44.780Z,60.40
2023-11-15T16:52:12.217Z,60.40
2023-11-15T16:54:40.193Z,60.88
2023-11-15T16:57:08.179Z,60.57
2023-11-15T16:59:35.864Z,60.29
2023-11-15T17:02:03.392Z,60.38
2023-11-15T17:04:31.062Z,59.91
2023-11-15T17:07:00.008Z,59.72
2023-11-15T17:09:29.542Z,59.67
2023-11-15T17:11:57.197Z,59.69
2023-11-15T17:14:25.017Z,60.03
2023-11-15T17:16:52.481Z,59.72
2023-11-15T17:19:20.978Z,59.96
2023-11-15T17:21:49.524Z,60.43
2023-11-15T17:24:17.146Z,60.15
2023-11-15T17:26:47.407Z,60.16
2023-11-15T17:29:15.406Z,60.49
2023-11-15T17:31:43.137Z,60.28
2023-11-15T17:34:14.112Z,60.34
2023-11-15T17:36:41.927Z,60.48
2023-11-15T17:39:13.237Z,60.16
2023-11-15T17:41:42.446Z,60.10
2023-11-15T17:44:13.000Z,60.23
2023-11-15T17:46:45.178Z,60.77
2023-11-15T17:49:12.730Z,60.62
2023-11-15T17:51:40.314Z,60.37
2023-11-15T17:54:08.640Z,60.21
2023-11-15T17:56:36.420Z,60.23
2023-11-15T17:59:05.515Z,60.05
2023-11-15T18:01:39.598Z,59.82
2023-11-15T18:04:10.822Z,59.98
2023-11-15T18:06:39.029Z,60.11
2023-11-15T18:09:09.910Z,60.26
2023-11-15T18:11:37.862Z,60.19
2023-11-15T18:14:05.429Z,60.08
2023-11-15T18:16:33.241Z,60.13
2023-11-15T18:19:06.442Z,59.98
2023-11-15T18:21:34.464Z,59.85
2023-11-15T18:24:02.323Z,60.00
2023-11-15T18:26:31.461Z,60.12
2023-11-15T18:28:59.404Z,60.29
2023-11-15T18:31:27.637Z,60.64
2023-11-15T18:33:58.223Z,61.14
2023-11-15T18:36:26.135Z,61.08
2023-11-15T18:38:53.918Z,60.92
2023-11-15T18:41:21.576Z,60.89
2023-11-15T18:43:50.389Z,60.63
2023-11-15T18:46:18.240Z,60.53
2023-11-15T18:48:46.086Z,60.33
2023-11-15T18:51:15.471Z,60.28
2023-11-15T18:53:43.018Z,60.45
2023-11-15T18:56:10.503Z,60.41
2023-11-15T18:58:39.710Z,60.54
2023-11-15T19:01:08.133Z,60.50
2023-11-15T19:03:35.788Z,60.60
2023-11-15T19:06:03.760Z,60.70
2023-11-15T19:08:32.143Z,60.65
2023-11-15T19:11:00.298Z,60.39
2023-11-15T19:13:28.438Z,60.63
2023-11-15T19:15:57.651Z,60.92
2023-11-15T19:18:27.478Z,60.55
2023-11-15T19:20:55.078Z,60.62
2023-11-15T19:23:23.627Z,60.54
2023-11-15T19:25:51.107Z,60.76
2023-11-15T19:28:18.623Z,60.67
2023-11-15T19:30:46.741Z,61.15
2023-11-15T19:33:14.341Z,61.19
2023-11-15T19:35:42.148Z,61.08
2023-11-15T19:38:09.738Z,61.31
2023-11-15T19:40:38.797Z,61.30
2023-11-15T19:43:07.472Z,60.99
2023-11-15T19:45:35.055Z,60.87
2023-11-15T19:48:02.670Z,60.88
2023-11-15T19:50:33.546Z,61.12
2023-11-15T19:53:04.040Z,61.89
2023-11-15T19:55:32.280Z,61.57
2023-11-15T19:58:00.245Z,61.53
2023-11-15T20:00:27.825Z,61.65
2023-11-15T20:02:55.520Z,61.50
2023-11-15T20:05:23.157Z,61.31
2023-11-15T20:07:50.805Z,60.87
2023-11-15T20:10:20.215Z,60.95
2023-11-15T20:12:49.580Z,61.17
2023-11-15T20:15:17.422Z,61.47
2023-11-15T20:17:46.555Z,61.24
2023-11-15T20:20:16.153Z,61.15
2023-11-15T20:22:50.886Z,61.54
2023-11-15T20:25:20.580Z,61.69
2023-11-15T20:27:48.242Z,62.09
2023-11-15T20:30:16.045Z,62.54
2023-11-15T20:32:43.953Z,62.93
2023-11-15T20:35:12.183Z,62.81
2023-11-15T20:37:39.849Z,62.96
2023-11-15T20:40:08.946Z,63.16
2023-11-15T20:42:36.694Z,63.39
2023-11-15T20:45:04.633Z,63.71
2023-11-15T20:47:33.471Z,63.82
2023-11-15T20:50:01.149Z,63.52
2023-11-15T20:52:28.622Z,63.15
2023-11-15T20:54:56.018Z,62.98
2023-11-15T20:57:24.528Z,63.11
2023-11-15T20:59:53.496Z,63.10
2023-11-15T21:02:22.515Z,63.06
2023-11-15T21:04:51.030Z,62.96
2023-11-15T21:07:18.758Z,62.90
2023-11-15T21:09:48.874Z,62.94
2023-11-15T21:12:16.745Z,63.02
2023-11-15T21:14:44.378Z,63.15
2023-11-15T21:17:11.786Z,63.04
2023-11-15T21:19:39.941Z,62.81
2023-11-15T21:22:07.408Z,62.91
2023-11-15T21:24:35.314Z,63.11
2023-11-15T21:27:02.811Z,63.17
2023-11-15T21:29:30.343Z,63.30
2023-11-15T21:32:00.057Z,63.15
2023-11-15T21:34:28.470Z,63.30
2023-11-15T21:37:03.113Z,62.95
2023-11-15T21:39:37.163Z,62.55
2023-11-15T21:42:05.650Z,62.67
2023-11-15T21:44:33.049Z,62.54
2023-11-15T21:47:00.471Z,62.74
2023-11-15T21:49:28.958Z,62.57
2023-11-15T21:51:56.364Z,62.37
2023-11-15T21:54:25.753Z,62.45
2023-11-15T21:56:53.196Z,62.09
2023-11-15T21:59:20.651Z,61.97
2023-11-15T22:01:48.585Z,61.79
2023-11-15T22:04:16.078Z,61.63
2023-11-15T22:06:52.533Z,61.44
2023-11-15T22:09:28.021Z,61.37
2023-11-15T22:11:55.478Z,61.34
2023-11-15T22:14:22.922Z,61.40
2023-11-15T22:16:50.954Z,61.32
2023-11-15T22:19:19.454Z,61.66
2023-11-15T22:21:47.071Z,62.09
2023-11-15T22:24:14.637Z,61.83
2023-11-15T22:26:42.051Z,61.93
2023-11-15T22:29:09.562Z,61.87
2023-11-15T22:31:37.416Z,62.05
2023-11-15T22:34:05.399Z,61.83
2023-11-15T22:36:32.769Z,61.77
2023-11-15T22:39:01.693Z,62.34
2023-11-15T22:41:29.782Z,62.07
2023-11-15T22:43:57.736Z,61.92
2023-11-15T22:46:25.185Z,62.11
2023-11-15T22:48:52.713Z,62.20
2023-11-15T22:51:20.273Z,62.00
2023-11-15T22:53:48.010Z,62.18
2023-11-15T22:56:16.572Z,62.11
2023-11-15T22:58:44.037Z,62.02
2023-11-15T23:01:13.117Z,62.09
2023-11-15T23:03:41.247Z,61.78
2023-11-15T23:06:12.854Z,61.94
2023-11-15T23:08:43.379Z,61.88
2023-11-15T23:11:10.846Z,61.88
2023-11-15T23:13:38.265Z,62.22
2023-11-15T23:16:06.338Z,62.05
2023-11-15T23:18:34.710Z,61.94
2023-11-15T23:21:02.214Z,61.79
2023-11-15T23:23:30.795Z,61.75
2023-11-15T23:25:58.171Z,62.21
2023-11-15T23:28:25.687Z,62.14
2023-11-15T23:30:56.660Z,62.26
2023-11-15T23:33:24.102Z,61.85
2023-11-15T23:35:51.645Z,61.78
2023-11-15T23:38:19.037Z,61.94
2023-11-15T23:40:46.407Z,62.07
2023-11-15T23:43:13.994Z,61.87
2023-11-15T23:45:43.087Z,61.96
2023-11-15T23:48:11.132Z,61.58
2023-11-15T23:50:39.370Z,61.37
2023-11-15T23:53:07.629Z,61.03
2023-11-15T23:55:35.003Z,60.69
2023-11-15T23:58:06.330Z,60.90
